CheckWX is a tool to help pilots better visualize weather data.  It is not intended as a substitute for an official pre-flight weather briefing.

19:16:52 UTC

CYDA METAR
Dawson City Airport
Dawson City, Canada
Current

1 hour ago

CYDA 261800Z CCA 01005KT 320V050 20SM SCT120 BKN220 BKN250 17/08 A2981 RMK AC4CI2CI1 FU SLP106 DENSITY ALT 1900FT
Observed
May-26 @ 18:00 UTC
Wind
  • 010° at 5 KTS
Visibility
20 SM
Flight Rules
VFR
Cloud Levels
  • Scattered at 12,000' AGL
  • Broken at 22,000' AGL
  • Broken at 25,000' AGL
Temperature
17°C / 63°F
Dewpoint
C / 46°F
Humidity
56%
Altimeter
29.81" Hg
Pressure
1009.52 hPa
Previous

2 hours ago

CYDA 261700Z 06005KT 20SM FEW150 SCT230 OVC250 14/07 A2984 RMK AC2CI2CS4 FU SLP116 DENSITY ALT 1500FT
Observed
May-26 @ 17:00 UTC
Wind
  • 060° at 5 KTS
Visibility
20 SM
Flight Rules
VFR
Cloud Levels
  • Few at 15,000' AGL
  • Scattered at 23,000' AGL
  • Overcast at 25,000' AGL
Temperature
14°C / 57°F
Dewpoint
C / 45°F
Humidity
63%
Altimeter
29.84" Hg
Pressure
1010.52 hPa
Previous

3 hours ago

CYDA 261600Z VRB02KT 20SM BKN097 OVC130 11/07 A2986 RMK AC5AC3 FU SLP122
Observed
May-26 @ 16:00 UTC
Wind
  • Variable at 2 KTS
Visibility
20 SM
Flight Rules
VFR
Cloud Levels
  • Broken at 9,700' AGL
  • Overcast at 13,000' AGL
Temperature
11°C / 52°F
Dewpoint
C / 45°F
Humidity
77%
Altimeter
29.86" Hg
Pressure
1011.22 hPa